Time;durP1;ratioP1;P1;durP2;ratioP2;P2;SDS_P1;SDS_P2;PMS_P1;PMS_P2;Temp;Humidity;BMP_temperature;BMP_pressure;BME280_temperature;BME280_humidity;BME280_pressure;Samples;Min_cycle;Max_cycle;Signal;HPM_P1;HPM_P2
2023/03/26 00:01:12;;;;;;;5.13;1.20;;;8.80;28.30;;;;;;5108990;27;20961;-70
2023/03/26 00:03:40;;;;;;;8.23;1.00;;;8.80;28.30;;;;;;5100127;28;20894;-69
2023/03/26 00:06:09;;;;;;;3.87;1.07;;;8.90;28.30;;;;;;5106305;28;20540;-70
2023/03/26 00:08:39;;;;;;;5.60;1.30;;;8.90;28.20;;;;;;5109679;28;20992;-70
2023/03/26 00:11:08;;;;;;;4.17;1.07;;;8.90;28.20;;;;;;5108473;28;20459;-69
2023/03/26 00:13:35;;;;;;;4.53;1.20;;;8.80;28.30;;;;;;5108708;28;20455;-69
2023/03/26 00:16:03;;;;;;;5.80;1.10;;;8.80;28.30;;;;;;5108406;28;20493;-70
2023/03/26 00:18:30;;;;;;;4.70;1.10;;;8.70;28.50;;;;;;5109268;28;20455;-69
2023/03/26 00:20:57;;;;;;;4.40;1.00;;;8.60;28.70;;;;;;5109467;28;20482;-70
2023/03/26 00:23:25;;;;;;;3.90;1.10;;;8.60;28.90;;;;;;5108144;28;20463;-69
2023/03/26 00:25:54;;;;;;;5.30;1.10;;;8.60;28.90;;;;;;5108974;28;20559;-69
2023/03/26 00:28:22;;;;;;;5.47;1.10;;;8.50;29.10;;;;;;5108452;28;20455;-70
2023/03/26 00:30:49;;;;;;;4.87;1.10;;;8.50;29.10;;;;;;5108422;27;20493;-70
2023/03/26 00:33:17;;;;;;;6.60;1.20;;;8.40;29.30;;;;;;5104987;28;20964;-70
2023/03/26 00:35:45;;;;;;;5.77;1.20;;;8.30;29.50;;;;;;5106813;28;20972;-70
2023/03/26 00:38:13;;;;;;;6.67;1.43;;;8.30;29.80;;;;;;5108846;28;20874;-70
2023/03/26 00:40:43;;;;;;;8.67;2.10;;;8.20;30.00;;;;;;5106420;28;20556;-70
2023/03/26 00:43:17;;;;;;;4.83;1.40;;;8.20;30.40;;;;;;5108092;28;20793;-70
2023/03/26 00:45:45;;;;;;;8.10;1.27;;;8.10;30.60;;;;;;5108911;28;20471;-70
2023/03/26 00:48:12;;;;;;;7.13;1.27;;;8.10;31.00;;;;;;5107710;28;20455;-70
2023/03/26 00:50:40;;;;;;;5.57;1.53;;;8.10;31.30;;;;;;5108453;28;20483;-70
2023/03/26 00:53:07;;;;;;;7.13;1.60;;;8.00;31.60;;;;;;5107642;28;20868;-70
2023/03/26 00:55:34;;;;;;;8.13;2.37;;;8.00;31.90;;;;;;5108322;28;20542;-69
2023/03/26 00:58:01;;;;;;;6.47;1.40;;;7.90;31.90;;;;;;5107491;28;20831;-70
2023/03/26 01:00:33;;;;;;;6.63;1.63;;;7.90;32.30;;;;;;5106563;28;20459;-70
2023/03/26 01:03:00;;;;;;;7.77;1.70;;;8.00;32.60;;;;;;5108486;28;20546;-70
2023/03/26 01:05:51;;;;;;;6.20;2.13;;;8.00;32.90;;;;;;5102081;28;20459;-70
2023/03/26 01:08:31;;;;;;;5.20;1.90;;;8.00;33.30;;;;;;5108038;28;20446;-70
2023/03/26 01:11:03;;;;;;;6.33;1.90;;;8.10;33.30;;;;;;5106312;28;20454;-70
2023/03/26 01:13:33;;;;;;;8.50;2.00;;;8.10;33.20;;;;;;5107521;28;20443;-70
2023/03/26 01:16:01;;;;;;;5.83;1.43;;;8.10;33.20;;;;;;5108383;28;20479;-70
2023/03/26 01:18:32;;;;;;;6.73;1.53;;;8.10;33.20;;;;;;5106294;28;20795;-69
2023/03/26 01:21:06;;;;;;;6.30;1.90;;;8.10;33.30;;;;;;5102173;28;20454;-70
2023/03/26 01:23:40;;;;;;;8.97;1.73;;;8.20;33.20;;;;;;5106806;28;20555;-70
2023/03/26 01:26:24;;;;;;;4.87;1.67;;;8.20;33.10;;;;;;5106842;28;21005;-70
2023/03/26 01:28:54;;;;;;;4.50;1.50;;;8.20;33.10;;;;;;5107932;28;20462;-69
2023/03/26 01:31:28;;;;;;;6.13;1.37;;;8.20;32.90;;;;;;5107473;28;20467;-70
2023/03/26 01:34:01;;;;;;;5.90;1.80;;;8.20;32.80;;;;;;5108607;28;20462;-70
2023/03/26 01:36:34;;;;;;;7.30;2.00;;;8.30;32.80;;;;;;5107795;28;20566;-70
2023/03/26 01:39:07;;;;;;;6.33;1.87;;;8.30;32.70;;;;;;5105133;28;20947;-70
2023/03/26 01:41:42;;;;;;;5.33;2.00;;;8.30;32.50;;;;;;5107947;28;20969;-70
2023/03/26 01:44:16;;;;;;;6.97;2.00;;;8.30;32.30;;;;;;5105722;28;20451;-70
2023/03/26 01:46:43;;;;;;;5.23;1.57;;;8.20;31.90;;;;;;5101838;28;20841;-70
2023/03/26 01:49:12;;;;;;;7.03;1.60;;;8.30;31.90;;;;;;5107626;28;21263;-70
2023/03/26 01:51:40;;;;;;;5.83;1.93;;;8.30;31.90;;;;;;5108458;28;20489;-70
2023/03/26 01:54:10;;;;;;;10.60;2.33;;;8.20;31.80;;;;;;5099256;28;20458;-70
2023/03/26 01:56:47;;;;;;;7.60;1.97;;;8.20;31.80;;;;;;5107298;28;20591;-69
2023/03/26 01:59:32;;;;;;;7.43;1.70;;;8.20;31.80;;;;;;5108154;28;20795;-70
2023/03/26 02:02:05;;;;;;;5.07;1.90;;;8.20;31.80;;;;;;5100626;28;20471;-69
2023/03/26 02:04:40;;;;;;;10.83;2.13;;;8.20;31.60;;;;;;5102048;28;21045;-69
2023/03/26 02:07:11;;;;;;;7.10;1.80;;;8.20;31.70;;;;;;5106357;28;20467;-69
2023/03/26 02:09:44;;;;;;;9.17;1.70;;;8.10;31.80;;;;;;5106923;28;20435;-70
2023/03/26 02:12:14;;;;;;;6.50;1.60;;;8.10;31.80;;;;;;5107862;28;20475;-70
2023/03/26 02:14:42;;;;;;;6.80;1.80;;;8.20;31.70;;;;;;5092268;28;20807;-73
2023/03/26 02:17:09;;;;;;;6.50;1.73;;;8.10;31.70;;;;;;5093099;28;20471;-73
2023/03/26 02:19:40;;;;;;;9.30;2.23;;;8.10;31.70;;;;;;5096584;28;20856;-74
2023/03/26 02:22:10;;;;;;;9.57;2.00;;;8.10;31.80;;;;;;5094437;27;20471;-74
2023/03/26 02:24:37;;;;;;;5.13;1.60;;;8.10;31.80;;;;;;5094570;28;20452;-73
2023/03/26 02:27:06;;;;;;;6.67;1.80;;;8.10;31.70;;;;;;5095430;28;20487;-73
2023/03/26 02:29:36;;;;;;;9.30;2.27;;;8.10;31.80;;;;;;5092785;28;20490;-73
2023/03/26 02:32:04;;;;;;;7.00;1.80;;;8.10;31.70;;;;;;5093665;28;20488;-73
2023/03/26 02:34:31;;;;;;;12.10;2.70;;;8.10;31.80;;;;;;5088435;28;20772;-74
2023/03/26 02:36:58;;;;;;;6.70;1.50;;;8.10;31.90;;;;;;5087390;28;20513;-74
2023/03/26 02:39:26;;;;;;;6.87;1.70;;;8.10;31.80;;;;;;5087160;28;20466;-73
2023/03/26 02:41:53;;;;;;;5.93;1.53;;;8.10;31.70;;;;;;5088295;28;21047;-73
2023/03/26 02:44:20;;;;;;;8.33;2.17;;;8.10;31.70;;;;;;5086530;28;20459;-73
2023/03/26 02:46:48;;;;;;;8.87;2.30;;;8.10;32.20;;;;;;5084350;28;20489;-74
2023/03/26 02:49:17;;;;;;;4.40;1.40;;;8.10;31.50;;;;;;5091363;28;20864;-69
2023/03/26 02:51:44;;;;;;;9.77;2.00;;;8.10;31.40;;;;;;5105349;28;20508;-69
2023/03/26 02:54:11;;;;;;;6.40;2.13;;;8.10;31.30;;;;;;5099296;28;20456;-69
2023/03/26 02:56:37;;;;;;;7.63;2.07;;;8.10;31.30;;;;;;5096890;28;20499;-69
2023/03/26 02:59:04;;;;;;;7.40;1.60;;;8.10;31.40;;;;;;5096780;28;20475;-69
2023/03/26 03:01:33;;;;;;;5.20;1.70;;;8.10;31.40;;;;;;5094985;28;20537;-69
2023/03/26 03:04:02;;;;;;;8.70;2.23;;;8.10;31.50;;;;;;5099442;28;20870;-69
2023/03/26 03:06:31;;;;;;;6.80;1.50;;;8.10;31.60;;;;;;5096991;28;20483;-69
2023/03/26 03:09:01;;;;;;;6.00;1.70;;;8.00;31.60;;;;;;5097772;28;20874;-70
2023/03/26 03:11:28;;;;;;;8.40;1.63;;;8.00;31.50;;;;;;5094368;28;20463;-69
2023/03/26 03:13:57;;;;;;;6.57;1.90;;;8.00;31.60;;;;;;5099918;28;20550;-70
2023/03/26 03:16:24;;;;;;;10.50;2.17;;;8.00;31.70;;;;;;5097281;28;20476;-69
2023/03/26 03:18:55;;;;;;;10.17;2.40;;;8.00;31.80;;;;;;5097531;28;20491;-69
2023/03/26 03:21:24;;;;;;;13.33;3.90;;;7.90;31.90;;;;;;5095945;28;20496;-69
2023/03/26 03:23:51;;;;;;;11.77;2.00;;;8.00;31.80;;;;;;5099635;28;20479;-69
2023/03/26 03:26:21;;;;;;;9.73;1.97;;;8.00;31.80;;;;;;5097270;28;20483;-69
2023/03/26 03:28:48;;;;;;;9.87;2.40;;;8.00;31.70;;;;;;5101359;28;20503;-69
2023/03/26 03:31:15;;;;;;;8.63;2.50;;;8.00;31.70;;;;;;5095791;28;20463;-69
2023/03/26 03:33:42;;;;;;;5.07;1.60;;;8.00;31.60;;;;;;5096291;28;20461;-70
2023/03/26 03:36:10;;;;;;;6.97;2.30;;;8.00;31.50;;;;;;5103860;28;20497;-69
2023/03/26 03:38:39;;;;;;;4.83;1.67;;;8.00;31.40;;;;;;5104525;28;20832;-69
2023/03/26 03:41:07;;;;;;;6.90;1.83;;;8.00;31.50;;;;;;5106877;28;20462;-70
2023/03/26 03:43:34;;;;;;;5.40;1.60;;;8.00;31.40;;;;;;5099813;28;20480;-69
2023/03/26 03:46:01;;;;;;;6.67;2.00;;;8.00;31.40;;;;;;5102217;28;20823;-69
2023/03/26 03:48:28;;;;;;;9.80;2.77;;;8.00;32.20;;;;;;5100983;28;20460;-70
2023/03/26 03:50:56;;;;;;;8.90;2.30;;;8.00;31.60;;;;;;5098749;28;20471;-69
2023/03/26 03:53:25;;;;;;;10.20;2.17;;;8.00;31.60;;;;;;5101432;28;20463;-69
2023/03/26 03:55:53;;;;;;;7.43;1.77;;;8.00;32.20;;;;;;5105165;28;20502;-70
2023/03/26 03:58:21;;;;;;;7.77;1.40;;;8.00;31.70;;;;;;5100276;28;20470;-70
2023/03/26 04:00:48;;;;;;;8.70;1.80;;;8.10;31.60;;;;;;5104908;28;20499;-69
2023/03/26 04:03:15;;;;;;;6.30;1.37;;;8.10;31.40;;;;;;5100899;28;20822;-69
2023/03/26 04:05:48;;;;;;;7.73;1.77;;;8.10;31.50;;;;;;5099395;28;20478;-69
2023/03/26 04:08:15;;;;;;;10.73;1.63;;;8.10;31.40;;;;;;5101112;28;20500;-70
2023/03/26 04:10:42;;;;;;;8.40;2.23;;;8.10;31.40;;;;;;5104152;28;20456;-69
2023/03/26 04:13:11;;;;;;;14.17;6.27;;;8.10;31.40;;;;;;5104777;28;21183;-69
2023/03/26 04:15:38;;;;;;;14.73;6.90;;;8.10;31.60;;;;;;5095840;28;20482;-69
2023/03/26 04:18:09;;;;;;;9.93;3.70;;;8.10;31.80;;;;;;5099835;28;20451;-69
2023/03/26 04:20:36;;;;;;;8.30;2.60;;;8.10;31.70;;;;;;5098360;28;21151;-69
2023/03/26 04:23:03;;;;;;;11.33;2.40;;;8.10;31.70;;;;;;5103824;28;20483;-69
2023/03/26 04:25:32;;;;;;;6.67;2.13;;;8.10;31.90;;;;;;5103791;28;20957;-69
2023/03/26 04:28:00;;;;;;;9.87;2.00;;;8.10;31.90;;;;;;5100630;28;20516;-69
2023/03/26 04:30:28;;;;;;;8.50;2.90;;;8.20;31.80;;;;;;5100378;28;20460;-69
2023/03/26 04:32:57;;;;;;;5.80;2.00;;;8.20;31.80;;;;;;5103761;28;20456;-69
2023/03/26 04:35:24;;;;;;;9.57;3.40;;;8.20;31.90;;;;;;5104505;28;20538;-70
2023/03/26 04:37:51;;;;;;;11.83;1.97;;;8.10;32.20;;;;;;5095411;28;20538;-70
2023/03/26 04:40:20;;;;;;;7.93;2.30;;;8.10;32.20;;;;;;5095990;28;20475;-70
2023/03/26 04:42:47;;;;;;;10.80;1.83;;;8.10;32.40;;;;;;5099422;28;20483;-69
2023/03/26 04:45:21;;;;;;;6.77;2.00;;;8.10;32.40;;;;;;5098663;28;20483;-70
2023/03/26 04:47:49;;;;;;;6.43;2.30;;;8.10;32.30;;;;;;5103005;28;20463;-69
2023/03/26 04:50:16;;;;;;;10.83;2.00;;;8.20;32.10;;;;;;5104734;28;20448;-70
2023/03/26 04:52:43;;;;;;;9.50;2.97;;;8.20;32.10;;;;;;5100432;28;20739;-69
2023/03/26 04:55:19;;;;;;;11.23;2.63;;;8.20;31.90;;;;;;5099176;28;20460;-70
2023/03/26 04:57:52;;;;;;;9.17;2.00;;;8.20;31.90;;;;;;5101582;28;20458;-69
2023/03/26 05:00:19;;;;;;;7.27;2.10;;;8.20;31.90;;;;;;5100116;28;20463;-69
2023/03/26 05:02:49;;;;;;;11.33;1.80;;;8.20;31.70;;;;;;5099846;28;20482;-69
2023/03/26 05:05:17;;;;;;;7.80;1.60;;;8.20;31.70;;;;;;5105246;27;20447;-70
2023/03/26 05:07:44;;;;;;;8.03;2.17;;;8.20;31.70;;;;;;5101170;28;20456;-70
2023/03/26 05:10:13;;;;;;;9.23;2.17;;;8.30;31.50;;;;;;5103863;28;20887;-69
2023/03/26 05:12:40;;;;;;;8.33;2.13;;;8.30;31.60;;;;;;5102071;28;20915;-69
2023/03/26 05:15:08;;;;;;;5.83;1.43;;;8.30;31.60;;;;;;5097838;28;20954;-70
2023/03/26 05:17:40;;;;;;;6.00;2.07;;;8.30;31.70;;;;;;5093608;28;20467;-69
2023/03/26 05:20:08;;;;;;;5.73;1.70;;;8.30;31.70;;;;;;5097712;28;20470;-69
2023/03/26 05:22:37;;;;;;;5.73;1.40;;;8.30;31.60;;;;;;5102307;28;20974;-70
2023/03/26 05:25:04;;;;;;;8.77;2.30;;;8.30;31.80;;;;;;5099770;28;20483;-69
2023/03/26 05:27:32;;;;;;;5.73;1.63;;;8.30;31.80;;;;;;5098728;28;20503;-69
2023/03/26 05:30:00;;;;;;;6.67;1.93;;;8.30;31.90;;;;;;5104399;28;20485;-70
2023/03/26 05:32:27;;;;;;;7.57;1.60;;;8.30;32.00;;;;;;5102901;28;20479;-70
2023/03/26 05:34:54;;;;;;;7.50;1.77;;;8.30;32.10;;;;;;5099848;28;20451;-69
2023/03/26 05:37:23;;;;;;;7.63;1.77;;;8.30;32.30;;;;;;5100273;28;20474;-69
2023/03/26 05:39:53;;;;;;;6.73;1.70;;;8.30;32.30;;;;;;5098771;28;20463;-70
2023/03/26 05:42:20;;;;;;;6.33;1.97;;;8.30;32.00;;;;;;5099957;28;20865;-69
2023/03/26 05:44:47;;;;;;;5.97;1.70;;;8.40;31.80;;;;;;5102643;28;20459;-70
2023/03/26 05:47:14;;;;;;;6.53;2.10;;;8.40;31.70;;;;;;5098562;28;20475;-69
2023/03/26 05:49:41;;;;;;;10.60;2.13;;;8.40;31.70;;;;;;5099554;28;20463;-69
2023/03/26 05:52:07;;;;;;;9.40;2.23;;;8.40;31.50;;;;;;5095063;28;20462;-69
2023/03/26 05:54:34;;;;;;;6.80;1.53;;;8.40;31.60;;;;;;5100624;28;20458;-69
2023/03/26 05:57:03;;;;;;;5.30;1.70;;;8.40;31.80;;;;;;5097364;28;20495;-69
2023/03/26 05:59:29;;;;;;;7.60;2.03;;;8.40;31.70;;;;;;5098620;28;20833;-70
2023/03/26 06:01:56;;;;;;;14.03;2.17;;;8.50;31.90;;;;;;5100902;28;20904;-70
2023/03/26 06:04:23;;;;;;;7.87;1.30;;;8.50;31.70;;;;;;5097247;28;20864;-70
2023/03/26 06:06:51;;;;;;;8.43;1.80;;;8.50;31.80;;;;;;5099990;28;20797;-69
2023/03/26 06:09:18;;;;;;;6.70;2.13;;;8.50;31.90;;;;;;5100575;28;20462;-69
2023/03/26 06:11:45;;;;;;;7.53;1.77;;;8.50;32.20;;;;;;5092299;28;20511;-69
2023/03/26 06:14:13;;;;;;;6.73;1.67;;;8.50;32.40;;;;;;5097356;28;20806;-69
2023/03/26 06:16:40;;;;;;;6.73;2.00;;;8.50;32.60;;;;;;5095826;28;20489;-70
2023/03/26 06:19:07;;;;;;;8.63;1.87;;;8.50;32.50;;;;;;5096394;28;20447;-69
2023/03/26 06:21:33;;;;;;;4.90;1.90;;;8.60;32.30;;;;;;5098515;28;20459;-70
2023/03/26 06:24:00;;;;;;;6.60;2.10;;;8.60;32.60;;;;;;5100387;28;20478;-70
2023/03/26 06:26:27;;;;;;;7.77;2.10;;;8.60;32.50;;;;;;5100342;28;20993;-69
2023/03/26 06:28:54;;;;;;;7.17;2.53;;;8.60;32.50;;;;;;5101598;28;20456;-69
2023/03/26 06:31:22;;;;;;;8.57;2.67;;;8.60;32.80;;;;;;5104722;27;20533;-69
2023/03/26 06:33:49;;;;;;;8.20;2.40;;;8.60;33.10;;;;;;5095960;27;20451;-69
2023/03/26 06:36:15;;;;;;;7.53;2.33;;;8.60;33.20;;;;;;5099607;28;21044;-69
2023/03/26 06:38:42;;;;;;;11.80;3.10;;;8.70;33.30;;;;;;5099108;28;20475;-68
2023/03/26 06:41:09;;;;;;;6.10;2.10;;;8.70;33.60;;;;;;5099335;28;20466;-68
2023/03/26 06:43:37;;;;;;;7.23;2.00;;;8.70;33.50;;;;;;5095655;28;20484;-69
2023/03/26 06:46:05;;;;;;;11.67;2.37;;;8.70;33.90;;;;;;5095727;28;20474;-68
2023/03/26 06:48:34;;;;;;;11.47;2.50;;;8.70;34.00;;;;;;5096275;28;20470;-68
2023/03/26 06:51:00;;;;;;;6.63;2.10;;;8.70;34.30;;;;;;5091506;28;20584;-69
2023/03/26 06:53:27;;;;;;;6.37;2.20;;;8.70;34.70;;;;;;5096695;28;20463;-69
2023/03/26 06:55:54;;;;;;;6.40;2.10;;;8.70;34.20;;;;;;5099578;28;20886;-68
2023/03/26 06:58:21;;;;;;;7.03;1.80;;;8.70;34.50;;;;;;5094242;28;20976;-69
2023/03/26 07:00:48;;;;;;;7.13;2.20;;;8.70;34.70;;;;;;5097590;28;20487;-68
2023/03/26 07:03:16;;;;;;;6.70;2.00;;;8.70;34.80;;;;;;5102421;28;20483;-69
2023/03/26 07:05:44;;;;;;;7.33;2.07;;;8.70;34.80;;;;;;5100412;28;20498;-69
2023/03/26 07:08:11;;;;;;;8.90;2.20;;;8.70;34.90;;;;;;5096051;28;21141;-69
2023/03/26 07:10:37;;;;;;;18.83;2.77;;;8.70;35.00;;;;;;5102837;28;20486;-69
2023/03/26 07:13:04;;;;;;;7.90;2.57;;;8.60;35.10;;;;;;5104153;28;20482;-69
2023/03/26 07:15:31;;;;;;;9.83;3.00;;;8.60;35.10;;;;;;5104502;28;20953;-69
2023/03/26 07:17:58;;;;;;;12.40;2.67;;;8.60;35.20;;;;;;5103551;28;20456;-70
2023/03/26 07:20:25;;;;;;;7.80;3.17;;;8.70;35.30;;;;;;5103376;27;20443;-69
2023/03/26 07:22:54;;;;;;;9.13;2.57;;;8.70;35.30;;;;;;5100679;28;20464;-70
2023/03/26 07:25:21;;;;;;;6.73;2.30;;;8.70;35.40;;;;;;5103868;28;20463;-69
2023/03/26 07:27:59;;;;;;;8.97;2.33;;;8.70;35.70;;;;;;5101954;28;20475;-69
2023/03/26 07:30:32;;;;;;;7.50;2.20;;;8.70;35.60;;;;;;5099264;28;20458;-71
2023/03/26 07:33:03;;;;;;;5.80;1.93;;;8.80;35.40;;;;;;5093297;28;20953;-71
2023/03/26 07:35:34;;;;;;;9.50;2.80;;;8.80;35.30;;;;;;5095111;28;20468;-70
2023/03/26 07:38:23;;;;;;;6.03;2.37;;;8.70;36.00;;;;;;5100847;28;20460;-70
2023/03/26 07:40:58;;;;;;;10.07;2.17;;;8.70;36.60;;;;;;5094693;28;21208;-70
2023/03/26 07:43:39;;;;;;;9.10;2.17;;;8.70;36.40;;;;;;5098818;28;20483;-70
2023/03/26 07:46:10;;;;;;;6.97;2.30;;;8.80;36.60;;;;;;5098956;28;20486;-70
2023/03/26 07:48:41;;;;;;;8.07;1.87;;;8.80;36.70;;;;;;5099232;28;20957;-70
2023/03/26 07:51:10;;;;;;;9.47;1.93;;;8.80;37.60;;;;;;5099464;28;20466;-70
2023/03/26 07:53:38;;;;;;;6.63;2.37;;;8.70;37.80;;;;;;5099307;28;20833;-70
2023/03/26 07:56:12;;;;;;;6.97;2.47;;;8.70;38.40;;;;;;5103138;28;20565;-70
2023/03/26 07:58:58;;;;;;;6.23;2.10;;;8.60;38.70;;;;;;5101593;28;20481;-70
2023/03/26 08:01:39;;;;;;;8.43;2.50;;;8.60;39.30;;;;;;5097879;28;20474;-70
2023/03/26 08:04:26;;;;;;;7.20;2.47;;;8.60;39.10;;;;;;5102920;28;21108;-70
2023/03/26 08:06:59;;;;;;;6.93;2.20;;;8.60;40.20;;;;;;5090681;28;20913;-70
2023/03/26 08:09:34;;;;;;;7.77;2.50;;;8.50;40.00;;;;;;5104463;27;20458;-69
2023/03/26 08:12:10;;;;;;;9.03;2.20;;;8.50;40.00;;;;;;5101470;28;20466;-69
2023/03/26 08:14:47;;;;;;;7.67;1.87;;;8.50;39.70;;;;;;5106271;28;20455;-69
2023/03/26 08:17:17;;;;;;;6.63;2.27;;;8.50;39.90;;;;;;5104553;28;20511;-69
2023/03/26 08:19:53;;;;;;;6.13;2.00;;;8.50;40.00;;;;;;5103879;28;20983;-70
2023/03/26 08:22:26;;;;;;;5.63;2.10;;;8.50;39.80;;;;;;5101393;28;20497;-69
2023/03/26 08:25:20;;;;;;;9.80;2.30;;;8.50;39.60;;;;;;5100174;28;20982;-69
2023/03/26 08:27:56;;;;;;;9.00;1.77;;;8.50;39.90;;;;;;5102297;28;20459;-69
2023/03/26 08:30:25;;;;;;;6.60;2.23;;;8.50;40.40;;;;;;5099394;28;20528;-70
2023/03/26 08:32:56;;;;;;;8.67;2.07;;;8.50;40.40;;;;;;5102412;28;20566;-70
2023/03/26 08:35:23;;;;;;;6.50;1.90;;;8.50;40.70;;;;;;5101403;28;20448;-70
2023/03/26 08:37:50;;;;;;;13.57;2.50;;;8.40;40.80;;;;;;5098091;28;20456;-70
2023/03/26 08:40:43;;;;;;;7.20;2.60;;;8.40;41.40;;;;;;5097808;28;20469;-70
2023/03/26 08:43:36;;;;;;;12.53;3.93;;;8.30;42.10;;;;;;5098970;28;20464;-70
2023/03/26 08:46:42;;;;;;;8.40;2.43;;;8.30;42.90;;;;;;5098729;28;20463;-70
2023/03/26 08:49:49;;;;;;;7.90;2.57;;;8.30;43.40;;;;;;5096597;28;20498;-69
2023/03/26 08:52:40;;;;;;;6.00;2.00;;;8.30;43.40;;;;;;5103277;28;20459;-70
2023/03/26 08:55:35;;;;;;;6.50;2.60;;;8.30;43.50;;;;;;5099266;28;20479;-70
2023/03/26 08:58:46;;;;;;;10.03;2.70;;;8.20;43.50;;;;;;5096570;28;20467;-70
2023/03/26 09:01:47;;;;;;;6.63;2.13;;;8.20;43.70;;;;;;5097737;28;21072;-70
2023/03/26 09:04:36;;;;;;;6.73;2.20;;;8.20;43.60;;;;;;5092493;28;20475;-70
2023/03/26 09:07:24;;;;;;;5.10;2.27;;;8.20;43.80;;;;;;5093368;28;20505;-70
2023/03/26 09:10:27;;;;;;;9.20;3.07;;;8.30;44.50;;;;;;5096594;28;20452;-70
2023/03/26 09:13:27;;;;;;;7.37;2.27;;;8.30;43.90;;;;;;5101199;28;20451;-70
2023/03/26 09:16:32;;;;;;;11.37;2.60;;;8.40;43.90;;;;;;5094341;28;20529;-70
2023/03/26 09:19:25;;;;;;;8.77;3.00;;;8.50;43.20;;;;;;5093479;28;20460;-70
2023/03/26 09:22:32;;;;;;;10.17;1.93;;;8.60;42.80;;;;;;5090664;28;21021;-70
2023/03/26 09:25:21;;;;;;;7.07;2.60;;;8.60;42.80;;;;;;5083510;28;20652;-70
2023/03/26 09:28:04;;;;;;;9.77;3.10;;;8.70;43.20;;;;;;5089854;28;20459;-71
2023/03/26 09:30:57;;;;;;;4.90;2.10;;;8.80;41.90;;;;;;5100710;27;20558;-70
2023/03/26 09:33:38;;;;;;;15.63;2.97;;;8.80;41.70;;;;;;5093834;28;20966;-70
2023/03/26 09:36:27;;;;;;;7.57;2.13;;;8.80;42.10;;;;;;5101082;28;20468;-70
2023/03/26 09:39:03;;;;;;;7.07;2.50;;;9.00;41.00;;;;;;5097930;28;20486;-70
2023/03/26 09:41:38;;;;;;;6.90;2.17;;;9.10;40.30;;;;;;5095492;28;20694;-70
2023/03/26 09:44:48;;;;;;;5.90;2.80;;;9.20;39.80;;;;;;5100121;28;20462;-70
2023/03/26 09:47:39;;;;;;;6.10;2.17;;;9.20;39.80;;;;;;5091978;28;21002;-70
2023/03/26 09:50:29;;;;;;;6.87;2.10;;;9.20;39.60;;;;;;5093886;28;20452;-73
2023/03/26 09:53:26;;;;;;;5.37;1.90;;;9.20;39.60;;;;;;5088675;28;20456;-73
2023/03/26 09:56:03;;;;;;;5.47;2.13;;;9.20;39.50;;;;;;5085703;28;20579;-73
2023/03/26 09:58:55;;;;;;;5.10;2.30;;;9.20;39.90;;;;;;5085104;28;20811;-73
2023/03/26 10:01:32;;;;;;;17.70;11.00;;;9.20;40.40;;;;;;5084628;28;20463;-73
2023/03/26 10:04:32;;;;;;;7.67;3.40;;;9.20;40.50;;;;;;5087116;28;20708;-73
2023/03/26 10:07:05;;;;;;;7.33;2.00;;;9.30;40.40;;;;;;5094089;28;21073;-73
2023/03/26 10:09:47;;;;;;;5.80;1.93;;;9.40;39.90;;;;;;5091183;28;20455;-73
2023/03/26 10:12:31;;;;;;;7.83;2.33;;;9.50;40.10;;;;;;5096186;28;20626;-73
2023/03/26 10:15:11;;;;;;;7.00;4.30;;;9.60;40.70;;;;;;5083530;28;20994;-73
2023/03/26 10:17:52;;;;;;;4.60;1.97;;;9.70;40.90;;;;;;5092436;28;20481;-73
2023/03/26 10:20:36;;;;;;;5.37;1.90;;;9.90;40.70;;;;;;5091541;28;20471;-73
2023/03/26 10:23:29;;;;;;;6.00;2.77;;;10.20;39.70;;;;;;5095304;28;20455;-73
2023/03/26 10:26:12;;;;;;;5.33;2.27;;;10.40;38.70;;;;;;5081529;28;20482;-73
2023/03/26 10:29:03;;;;;;;4.90;1.77;;;10.30;38.40;;;;;;5091788;28;20470;-73
2023/03/26 10:31:39;;;;;;;6.17;1.20;;;11.10;39.60;;;;;;5085563;28;20487;-73
2023/03/26 10:34:19;;;;;;;5.20;1.73;;;14.10;30.80;;;;;;5088326;28;20447;-73
2023/03/26 10:36:55;;;;;;;4.47;1.20;;;16.70;23.00;;;;;;5093324;28;20483;-73
2023/03/26 10:39:42;;;;;;;5.27;1.53;;;18.90;16.10;;;;;;5098404;28;20467;-73
2023/03/26 10:42:50;;;;;;;4.93;1.90;;;20.10;12.20;;;;;;5096279;28;20740;-73
2023/03/26 10:45:31;;;;;;;5.10;1.57;;;21.10;10.70;;;;;;5011536;28;20873;-73
2023/03/26 10:48:27;;;;;;;4.27;0.90;;;22.80;8.00;;;;;;5079446;28;20468;-74
2023/03/26 10:51:17;;;;;;;5.10;1.50;;;24.70;3.60;;;;;;5087741;28;20468;-74
2023/03/26 10:53:49;;;;;;;4.40;1.03;;;26.00;2.10;;;;;;5093767;28;20456;-74
2023/03/26 10:56:23;;;;;;;3.70;0.93;;;26.90;1.00;;;;;;5089954;28;20471;-74
2023/03/26 10:58:50;;;;;;;3.90;1.33;;;27.50;1.00;;;;;;5085278;28;20972;-74
2023/03/26 11:01:23;;;;;;;4.93;1.00;;;27.40;1.00;;;;;;5086924;28;21037;-74
2023/03/26 11:03:53;;;;;;;4.53;1.53;;;26.40;1.00;;;;;;5087113;28;20475;-74
2023/03/26 11:06:30;;;;;;;4.50;1.00;;;25.80;1.00;;;;;;5093949;28;20487;-74
2023/03/26 11:09:05;;;;;;;3.70;0.90;;;26.20;1.00;;;;;;5088299;28;20459;-74
2023/03/26 11:11:41;;;;;;;4.03;0.90;;;26.50;1.00;;;;;;5093574;28;20459;-74
2023/03/26 11:14:15;;;;;;;6.20;1.50;;;26.70;1.00;;;;;;5084759;28;20470;-74
2023/03/26 11:16:54;;;;;;;3.80;1.00;;;26.60;1.00;;;;;;5095234;28;20764;-74
2023/03/26 11:19:28;;;;;;;4.60;1.60;;;26.80;1.00;;;;;;5088865;28;20893;-74
2023/03/26 11:22:03;;;;;;;4.00;1.00;;;26.70;1.00;;;;;;5085319;28;20459;-74
2023/03/26 11:24:55;;;;;;;4.17;1.10;;;26.20;1.00;;;;;;5096996;28;20478;-74
2023/03/26 11:27:34;;;;;;;4.00;0.93;;;25.00;1.00;;;;;;5093200;28;20475;-74
2023/03/26 11:30:15;;;;;;;4.60;1.13;;;23.30;2.10;;;;;;5092477;28;20459;-74
2023/03/26 11:32:45;;;;;;;4.30;1.17;;;22.20;3.90;;;;;;5086394;28;20513;-74
2023/03/26 11:35:19;;;;;;;4.40;1.40;;;21.60;4.80;;;;;;5090012;28;20467;-74
2023/03/26 11:37:50;;;;;;;4.40;1.43;;;20.60;5.70;;;;;;5088107;28;20508;-74
2023/03/26 11:40:23;;;;;;;4.40;1.00;;;19.80;7.30;;;;;;5084500;28;20576;-74
2023/03/26 11:42:55;;;;;;;3.87;1.00;;;19.00;8.10;;;;;;5089816;28;20468;-74
2023/03/26 11:45:25;;;;;;;3.37;0.57;;;18.40;9.40;;;;;;5093057;28;20475;-74
2023/03/26 11:47:54;;;;;;;3.30;0.60;;;17.70;10.20;;;;;;5086345;28;20447;-73
2023/03/26 11:50:26;;;;;;;5.40;0.90;;;17.00;11.80;;;;;;5086464;28;20460;-73
2023/03/26 11:52:57;;;;;;;4.50;0.97;;;16.50;13.10;;;;;;5082772;28;20463;-74
2023/03/26 11:55:26;;;;;;;3.40;0.60;;;16.00;13.90;;;;;;5088029;28;20482;-73
2023/03/26 11:57:57;;;;;;;3.60;0.77;;;15.60;14.70;;;;;;5093568;28;21366;-73
2023/03/26 12:00:26;;;;;;;3.60;0.90;;;15.30;15.50;;;;;;5098318;27;20463;-73
2023/03/26 12:02:57;;;;;;;5.00;0.90;;;15.00;16.20;;;;;;5092750;28;20463;-73
2023/03/26 12:05:26;;;;;;;4.07;1.10;;;14.70;17.10;;;;;;5095359;28;20471;-73
2023/03/26 12:08:18;;;;;;;4.53;1.27;;;14.50;17.40;;;;;;5092014;28;21211;-73
2023/03/26 12:10:58;;;;;;;5.17;1.77;;;14.30;18.10;;;;;;5083748;27;20455;-73
2023/03/26 12:13:34;;;;;;;4.73;1.20;;;14.10;17.40;;;;;;5106008;28;20944;-70
2023/03/26 12:16:07;;;;;;;9.30;1.53;;;13.80;17.30;;;;;;5105507;28;20467;-72
2023/03/26 12:18:35;;;;;;;5.77;1.60;;;13.70;20.10;;;;;;5105301;27;20464;-73
2023/03/26 12:21:05;;;;;;;5.30;1.10;;;13.50;22.20;;;;;;5103465;27;20455;-73
2023/03/26 12:23:52;;;;;;;5.50;1.47;;;13.20;22.00;;;;;;5096569;28;20466;-73
2023/03/26 12:26:32;;;;;;;4.63;1.03;;;12.80;20.80;;;;;;5094619;27;20482;-72
2023/03/26 12:29:07;;;;;;;6.40;0.93;;;12.30;19.40;;;;;;5094582;28;20463;-72
2023/03/26 12:31:45;;;;;;;5.17;1.00;;;11.90;18.90;;;;;;5098053;27;20470;-72
2023/03/26 12:34:15;;;;;;;4.80;0.80;;;11.50;19.40;;;;;;5099856;27;20482;-72
2023/03/26 12:36:50;;;;;;;5.83;0.80;;;11.20;20.00;;;;;;5092094;27;20456;-70
2023/03/26 12:39:31;;;;;;;4.00;0.90;;;10.90;21.00;;;;;;5104750;28;20825;-70
2023/03/26 12:42:01;;;;;;;4.43;1.07;;;10.70;22.30;;;;;;5096104;28;20973;-70
2023/03/26 12:44:31;;;;;;;5.33;1.20;;;10.50;23.20;;;;;;5099625;28;20452;-71
2023/03/26 12:47:19;;;;;;;4.60;1.40;;;10.50;24.20;;;;;;5097678;28;20483;-70
2023/03/26 12:49:48;;;;;;;4.87;1.03;;;10.50;25.00;;;;;;5107849;28;20448;-70
2023/03/26 12:52:44;;;;;;;4.00;1.03;;;10.80;25.80;;;;;;5107378;28;20447;-70
2023/03/26 12:55:34;;;;;;;4.60;1.30;;;11.00;25.20;;;;;;5100056;28;20862;-70
2023/03/26 12:58:16;;;;;;;8.93;3.90;;;11.00;24.00;;;;;;5103195;28;20565;-70
2023/03/26 13:00:50;;;;;;;5.67;1.87;;;11.10;24.60;;;;;;5103651;28;20820;-70
2023/03/26 13:03:37;;;;;;;5.50;1.80;;;11.30;24.70;;;;;;5107729;28;20436;-71
2023/03/26 13:06:29;;;;;;;4.80;1.07;;;11.50;24.90;;;;;;5104289;28;20889;-71
2023/03/26 13:09:24;;;;;;;5.10;2.10;;;11.70;25.20;;;;;;5098536;28;20826;-70
2023/03/26 13:11:59;;;;;;;5.10;1.43;;;11.80;24.30;;;;;;5103940;28;20447;-70
2023/03/26 13:14:44;;;;;;;6.03;1.00;;;12.00;24.40;;;;;;5105765;28;20447;-70
2023/03/26 13:17:22;;;;;;;5.27;1.10;;;12.10;24.60;;;;;;5102092;28;20961;-70
2023/03/26 13:19:58;;;;;;;5.00;1.17;;;12.30;23.50;;;;;;5103536;28;20497;-71
2023/03/26 13:22:33;;;;;;;4.90;1.30;;;12.40;23.30;;;;;;5098699;27;20919;-70
2023/03/26 13:25:07;;;;;;;5.27;2.03;;;12.60;23.50;;;;;;5103104;28;20807;-70
2023/03/26 13:27:48;;;;;;;4.57;1.10;;;12.70;23.00;;;;;;5096209;28;20478;-71
2023/03/26 13:30:29;;;;;;;3.70;0.90;;;12.70;22.70;;;;;;5107327;28;20718;-70